VTREG BIRK-EKVG
Flight info
| Callsign | VTREG |
|---|---|
| Flight time | 1h 37m |
| Altitude | 23000 |
| Route | METIL Y194 NASBU/M047F290 DCT H6316 DCT H6210 DCT MAGNI |
| Aircraft | SF50/L-BDGRSWY/LB2U2 |
Departure
| Time | 2026-04-24 00:16 |
|---|---|
| Airport | Reykjavík Domestic Airport (BIRK) |
Arrival
| Time | 2026-04-24 01:53 |
|---|---|
| Airport | Vágar Airport (EKVG) |
| Time | Latitude | Longitude | Altitude | Speed | Heading |
|---|---|---|---|---|---|
| 2026-04-23 23:55 | 64.13187 | -21.93313 | 32 ft | 0 kts | 275° |
| 2026-04-24 00:08 | 64.13187 | -21.93312 | 32 ft | 0 kts | 275° |
| 2026-04-24 00:13 | 64.13341 | -21.93593 | 32 ft | 17 kts | 355° |
| 2026-04-24 00:13 | 64.13439 | -21.93611 | 32 ft | 12 kts | 355° |
| 2026-04-24 00:13 | 64.13511 | -21.93626 | 32 ft | 8 kts | 354° |
| 2026-04-24 00:14 | 64.13552 | -21.93644 | 32 ft | 4 kts | 337° |
| 2026-04-24 00:14 | 64.13564 | -21.93659 | 32 ft | 0 kts | 325° |
| 2026-04-24 00:14 | 64.13567 | -21.93663 | 32 ft | 3 kts | 325° |
| 2026-04-24 00:14 | 64.13594 | -21.93720 | 32 ft | 4 kts | 305° |
| 2026-04-24 00:15 | 64.13626 | -21.93818 | 32 ft | 10 kts | 289° |
| 2026-04-24 00:15 | 64.13594 | -21.93885 | 32 ft | 5 kts | 168° |
| 2026-04-24 00:15 | 64.13417 | -21.93853 | 31 ft | 56 kts | 175° |
| 2026-04-24 00:15 | 64.12835 | -21.93746 | 87 ft | 104 kts | 178° |
| 2026-04-24 00:16 | 64.12079 | -21.93575 | 465 ft | 109 kts | 176° |
| 2026-04-24 00:16 | 64.11311 | -21.93304 | 835 ft | 119 kts | 171° |
| 2026-04-24 00:16 | 64.10497 | -21.92898 | 1282 ft | 124 kts | 171° |
| 2026-04-24 00:16 | 64.09587 | -21.92479 | 1553 ft | 140 kts | 171° |
| 2026-04-24 00:17 | 64.08728 | -21.91476 | 1973 ft | 144 kts | 130° |
| 2026-04-24 00:17 | 64.08238 | -21.89458 | 2409 ft | 146 kts | 120° |
| 2026-04-24 00:17 | 64.07701 | -21.87419 | 2772 ft | 160 kts | 124° |
| 2026-04-24 00:17 | 64.07045 | -21.85186 | 3231 ft | 173 kts | 125° |
| 2026-04-24 00:18 | 64.06375 | -21.82911 | 3890 ft | 174 kts | 126° |
| 2026-04-24 00:18 | 64.05680 | -21.80605 | 4459 ft | 179 kts | 127° |
| 2026-04-24 00:18 | 64.04967 | -21.78235 | 5030 ft | 184 kts | 127° |
| 2026-04-24 00:18 | 64.04231 | -21.75795 | 5600 ft | 188 kts | 127° |
| 2026-04-24 00:19 | 64.03485 | -21.73327 | 6175 ft | 190 kts | 127° |
| 2026-04-24 00:19 | 64.02728 | -21.70830 | 6740 ft | 192 kts | 127° |
| 2026-04-24 00:19 | 64.01966 | -21.68311 | 7282 ft | 194 kts | 127° |
| 2026-04-24 00:19 | 64.01200 | -21.65787 | 7818 ft | 194 kts | 126° |
| 2026-04-24 00:20 | 64.00430 | -21.63249 | 8363 ft | 195 kts | 126° |
| 2026-04-24 00:20 | 63.99658 | -21.60714 | 8875 ft | 195 kts | 126° |
| 2026-04-24 00:20 | 63.98882 | -21.58160 | 9404 ft | 196 kts | 126° |
| 2026-04-24 00:20 | 63.98104 | -21.55601 | 9908 ft | 197 kts | 126° |
| 2026-04-24 00:21 | 63.97384 | -21.52952 | 10367 ft | 199 kts | 112° |
| 2026-04-24 00:21 | 63.97140 | -21.49853 | 10802 ft | 199 kts | 91° |
| 2026-04-24 00:21 | 63.97102 | -21.46730 | 11217 ft | 201 kts | 91° |
| 2026-04-24 00:21 | 63.97035 | -21.43500 | 11668 ft | 202 kts | 91° |
| 2026-04-24 00:22 | 63.96977 | -21.40347 | 12100 ft | 203 kts | 91° |
| 2026-04-24 00:22 | 63.96919 | -21.37124 | 12539 ft | 204 kts | 91° |
| 2026-04-24 00:22 | 63.96859 | -21.33867 | 12964 ft | 205 kts | 91° |
| 2026-04-24 00:22 | 63.96798 | -21.30596 | 13386 ft | 206 kts | 91° |
| 2026-04-24 00:23 | 63.96734 | -21.27329 | 13811 ft | 207 kts | 90° |
| 2026-04-24 00:23 | 63.96672 | -21.24048 | 14217 ft | 209 kts | 91° |
| 2026-04-24 00:23 | 63.96605 | -21.20738 | 14595 ft | 209 kts | 90° |
| 2026-04-24 00:23 | 63.96541 | -21.17419 | 14971 ft | 210 kts | 90° |
| 2026-04-24 00:24 | 63.96473 | -21.14097 | 15358 ft | 211 kts | 90° |
| 2026-04-24 00:24 | 63.96406 | -21.10753 | 15741 ft | 211 kts | 90° |
| 2026-04-24 00:24 | 63.96337 | -21.07410 | 16128 ft | 212 kts | 90° |
| 2026-04-24 00:24 | 63.96267 | -21.04051 | 16504 ft | 213 kts | 90° |
| 2026-04-24 00:25 | 63.96199 | -21.00674 | 16871 ft | 214 kts | 89° |
| 2026-04-24 00:25 | 63.96128 | -20.97334 | 17254 ft | 215 kts | 89° |
| 2026-04-24 00:25 | 63.96054 | -20.93932 | 17657 ft | 215 kts | 89° |
| 2026-04-24 00:25 | 63.95981 | -20.90518 | 18061 ft | 216 kts | 89° |
| 2026-04-24 00:26 | 63.95907 | -20.87098 | 18461 ft | 217 kts | 89° |
| 2026-04-24 00:26 | 63.95832 | -20.83663 | 18848 ft | 218 kts | 89° |
| 2026-04-24 00:26 | 63.95755 | -20.80219 | 19212 ft | 218 kts | 89° |
| 2026-04-24 00:26 | 63.95679 | -20.76781 | 19578 ft | 218 kts | 89° |
| 2026-04-24 00:27 | 63.95600 | -20.73327 | 19953 ft | 218 kts | 89° |
| 2026-04-24 00:27 | 63.95522 | -20.69869 | 20323 ft | 219 kts | 88° |
| 2026-04-24 00:27 | 63.95441 | -20.66413 | 20691 ft | 219 kts | 88° |
| 2026-04-24 00:27 | 63.95361 | -20.62939 | 21059 ft | 220 kts | 88° |
| 2026-04-24 00:28 | 63.95277 | -20.59474 | 21433 ft | 220 kts | 88° |
| 2026-04-24 00:28 | 63.95194 | -20.56019 | 21838 ft | 218 kts | 88° |
| 2026-04-24 00:28 | 63.95110 | -20.52570 | 22250 ft | 217 kts | 88° |
| 2026-04-24 00:28 | 63.95027 | -20.49163 | 22624 ft | 216 kts | 88° |
| 2026-04-24 00:29 | 63.94942 | -20.45763 | 22995 ft | 216 kts | 88° |
| 2026-04-24 00:29 | 63.94858 | -20.42207 | 23008 ft | 231 kts | 88° |
| 2026-04-24 00:29 | 63.94764 | -20.38455 | 23015 ft | 244 kts | 89° |
| 2026-04-24 00:29 | 63.94645 | -20.34510 | 23010 ft | 256 kts | 92° |
| 2026-04-24 00:30 | 63.94295 | -20.30498 | 23013 ft | 265 kts | 97° |
| 2026-04-24 00:30 | 63.93925 | -20.26327 | 23011 ft | 272 kts | 96° |
| 2026-04-24 00:30 | 63.93561 | -20.22050 | 23013 ft | 278 kts | 97° |
| 2026-04-24 00:30 | 63.93182 | -20.17703 | 23015 ft | 283 kts | 97° |
| 2026-04-24 00:31 | 63.92793 | -20.13280 | 23012 ft | 287 kts | 97° |
| 2026-04-24 00:31 | 63.92400 | -20.08808 | 23013 ft | 290 kts | 97° |
| 2026-04-24 00:31 | 63.92000 | -20.04280 | 23014 ft | 294 kts | 97° |
| 2026-04-24 00:31 | 63.91596 | -19.99714 | 23013 ft | 297 kts | 97° |
| 2026-04-24 00:32 | 63.91184 | -19.95094 | 23016 ft | 300 kts | 97° |
| 2026-04-24 00:32 | 63.90767 | -19.90420 | 23018 ft | 303 kts | 97° |
| 2026-04-24 00:32 | 63.90344 | -19.85711 | 23013 ft | 305 kts | 98° |
| 2026-04-24 00:32 | 63.89918 | -19.80965 | 23018 ft | 308 kts | 98° |
| 2026-04-24 00:33 | 63.89486 | -19.76190 | 23015 ft | 310 kts | 98° |
| 2026-04-24 00:33 | 63.89050 | -19.71387 | 23015 ft | 310 kts | 98° |
| 2026-04-24 00:33 | 63.88612 | -19.66580 | 23015 ft | 311 kts | 98° |
| 2026-04-24 00:33 | 63.88172 | -19.61776 | 23012 ft | 311 kts | 98° |
| 2026-04-24 00:34 | 63.87729 | -19.56959 | 23014 ft | 312 kts | 98° |
| 2026-04-24 00:34 | 63.87285 | -19.52158 | 23013 ft | 312 kts | 98° |
| 2026-04-24 00:34 | 63.86844 | -19.47388 | 23014 ft | 312 kts | 98° |
| 2026-04-24 00:34 | 63.86397 | -19.42568 | 23014 ft | 312 kts | 98° |
| 2026-04-24 00:35 | 63.85947 | -19.37750 | 23008 ft | 313 kts | 98° |
| 2026-04-24 00:35 | 63.85494 | -19.32911 | 23009 ft | 313 kts | 98° |
| 2026-04-24 00:35 | 63.85040 | -19.28090 | 23000 ft | 313 kts | 98° |
| 2026-04-24 00:35 | 63.84580 | -19.23244 | 23005 ft | 313 kts | 99° |
| 2026-04-24 00:36 | 63.84123 | -19.18417 | 23001 ft | 314 kts | 99° |
| 2026-04-24 00:36 | 63.83664 | -19.13581 | 23002 ft | 314 kts | 99° |
| 2026-04-24 00:36 | 63.83200 | -19.08728 | 23000 ft | 315 kts | 99° |
| 2026-04-24 00:36 | 63.82735 | -19.03877 | 23001 ft | 315 kts | 99° |
| 2026-04-24 00:37 | 63.82268 | -18.99020 | 22997 ft | 316 kts | 99° |
| 2026-04-24 00:37 | 63.81799 | -18.94161 | 22997 ft | 316 kts | 99° |
| 2026-04-24 00:37 | 63.81328 | -18.89299 | 22995 ft | 317 kts | 99° |
| 2026-04-24 00:37 | 63.80853 | -18.84411 | 22991 ft | 317 kts | 99° |
| 2026-04-24 00:38 | 63.80383 | -18.79598 | 22992 ft | 318 kts | 100° |
| 2026-04-24 00:38 | 63.79904 | -18.74720 | 22990 ft | 318 kts | 100° |
| 2026-04-24 00:38 | 63.79422 | -18.69822 | 22989 ft | 318 kts | 100° |
| 2026-04-24 00:38 | 63.78941 | -18.64939 | 22984 ft | 319 kts | 100° |
| 2026-04-24 00:39 | 63.78777 | -18.63284 | 22984 ft | 319 kts | 100° |
| 2026-04-24 00:39 | 63.78352 | -18.59000 | 22984 ft | 319 kts | 100° |
| 2026-04-24 00:39 | 63.77862 | -18.54100 | 22985 ft | 320 kts | 100° |
| 2026-04-24 00:39 | 63.77373 | -18.49201 | 22988 ft | 320 kts | 101° |
| 2026-04-24 00:40 | 63.76881 | -18.44288 | 22984 ft | 321 kts | 101° |
| 2026-04-24 00:40 | 63.76384 | -18.39366 | 22984 ft | 321 kts | 101° |
| 2026-04-24 00:40 | 63.75886 | -18.34444 | 22979 ft | 321 kts | 101° |
| 2026-04-24 00:40 | 63.75386 | -18.29524 | 22980 ft | 322 kts | 101° |
| 2026-04-24 00:41 | 63.74884 | -18.24587 | 22980 ft | 322 kts | 101° |
| 2026-04-24 00:41 | 63.74379 | -18.19657 | 22983 ft | 323 kts | 102° |
| 2026-04-24 00:41 | 63.73870 | -18.14710 | 22981 ft | 323 kts | 102° |
| 2026-04-24 00:41 | 63.73362 | -18.09776 | 22979 ft | 324 kts | 102° |
| 2026-04-24 00:42 | 63.72850 | -18.04823 | 22978 ft | 324 kts | 102° |
| 2026-04-24 00:42 | 63.72334 | -17.99865 | 22982 ft | 324 kts | 102° |
| 2026-04-24 00:42 | 63.71824 | -17.94961 | 22976 ft | 325 kts | 102° |
| 2026-04-24 00:42 | 63.71298 | -17.89937 | 22976 ft | 325 kts | 102° |
| 2026-04-24 00:43 | 63.70782 | -17.85021 | 22980 ft | 326 kts | 102° |
| 2026-04-24 00:43 | 63.70257 | -17.80034 | 22975 ft | 327 kts | 103° |
| 2026-04-24 00:43 | 63.69729 | -17.75040 | 22974 ft | 327 kts | 103° |
| 2026-04-24 00:43 | 63.69202 | -17.70053 | 22977 ft | 327 kts | 103° |
| 2026-04-24 00:44 | 63.68668 | -17.65047 | 22971 ft | 328 kts | 103° |
| 2026-04-24 00:44 | 63.68135 | -17.60058 | 22972 ft | 329 kts | 103° |
| 2026-04-24 00:44 | 63.67598 | -17.55044 | 22973 ft | 329 kts | 103° |
| 2026-04-24 00:44 | 63.67057 | -17.50020 | 22973 ft | 330 kts | 104° |
| 2026-04-24 00:45 | 63.66514 | -17.44991 | 22975 ft | 331 kts | 104° |
| 2026-04-24 00:45 | 63.65968 | -17.39945 | 22974 ft | 331 kts | 104° |
| 2026-04-24 00:45 | 63.65420 | -17.34913 | 22969 ft | 332 kts | 104° |
| 2026-04-24 00:45 | 63.64870 | -17.29867 | 22960 ft | 332 kts | 104° |
| 2026-04-24 00:46 | 63.64316 | -17.24812 | 22977 ft | 333 kts | 104° |
| 2026-04-24 00:46 | 63.63760 | -17.19756 | 22972 ft | 333 kts | 104° |
| 2026-04-24 00:46 | 63.63207 | -17.14742 | 22977 ft | 334 kts | 105° |
| 2026-04-24 00:46 | 63.62644 | -17.09670 | 22975 ft | 335 kts | 105° |
| 2026-04-24 00:47 | 63.62076 | -17.04575 | 22968 ft | 335 kts | 105° |
| 2026-04-24 00:47 | 63.61511 | -16.99496 | 22971 ft | 336 kts | 105° |
| 2026-04-24 00:47 | 63.60939 | -16.94395 | 22961 ft | 336 kts | 105° |
| 2026-04-24 00:47 | 63.60366 | -16.89296 | 22967 ft | 336 kts | 105° |
| 2026-04-24 00:48 | 63.59790 | -16.84193 | 22968 ft | 337 kts | 106° |
| 2026-04-24 00:48 | 63.59211 | -16.79080 | 22958 ft | 337 kts | 106° |
| 2026-04-24 00:48 | 63.58633 | -16.73990 | 22965 ft | 338 kts | 106° |
| 2026-04-24 00:48 | 63.58049 | -16.68869 | 22961 ft | 338 kts | 106° |
| 2026-04-24 00:49 | 63.57462 | -16.63743 | 22972 ft | 339 kts | 107° |
| 2026-04-24 00:49 | 63.56875 | -16.58626 | 22972 ft | 339 kts | 107° |
| 2026-04-24 00:49 | 63.56282 | -16.53477 | 22970 ft | 340 kts | 107° |
| 2026-04-24 00:49 | 63.55692 | -16.48367 | 22969 ft | 340 kts | 107° |
| 2026-04-24 00:50 | 63.55111 | -16.43334 | 23623 ft | 319 kts | 108° |
| 2026-04-24 00:50 | 63.54580 | -16.38725 | 24436 ft | 291 kts | 108° |
| 2026-04-24 00:50 | 63.54090 | -16.34536 | 25231 ft | 264 kts | 109° |
| 2026-04-24 00:50 | 63.53641 | -16.30704 | 25867 ft | 249 kts | 110° |
| 2026-04-24 00:51 | 63.53344 | -16.28207 | 26045 ft | 249 kts | 110° |
| 2026-04-24 00:51 | 63.52899 | -16.24446 | 26334 ft | 250 kts | 110° |
| 2026-04-24 00:51 | 63.52313 | -16.19456 | 26722 ft | 250 kts | 110° |
| 2026-04-24 00:51 | 63.51870 | -16.15704 | 27016 ft | 250 kts | 110° |
| 2026-04-24 00:52 | 63.51569 | -16.13157 | 27211 ft | 250 kts | 110° |
| 2026-04-24 00:52 | 63.51130 | -16.09454 | 27493 ft | 249 kts | 110° |
| 2026-04-24 00:52 | 63.50684 | -16.05703 | 27776 ft | 250 kts | 110° |
| 2026-04-24 00:52 | 63.50236 | -16.01952 | 28059 ft | 249 kts | 111° |
| 2026-04-24 00:53 | 63.49756 | -15.98229 | 28327 ft | 248 kts | 114° |
| 2026-04-24 00:53 | 63.49228 | -15.94535 | 28605 ft | 248 kts | 114° |
| 2026-04-24 00:53 | 63.48713 | -15.90842 | 28884 ft | 248 kts | 114° |
| 2026-04-24 00:53 | 63.48191 | -15.87151 | 29156 ft | 248 kts | 114° |
| 2026-04-24 00:54 | 63.47668 | -15.83468 | 29432 ft | 249 kts | 114° |
| 2026-04-24 00:54 | 63.47146 | -15.79792 | 29700 ft | 248 kts | 115° |
| 2026-04-24 00:54 | 63.46621 | -15.76103 | 29979 ft | 249 kts | 115° |
| 2026-04-24 00:54 | 63.46095 | -15.72423 | 30253 ft | 249 kts | 115° |
| 2026-04-24 00:55 | 63.45569 | -15.68741 | 30500 ft | 249 kts | 115° |
| 2026-04-24 00:55 | 63.45040 | -15.65051 | 30724 ft | 248 kts | 115° |
| 2026-04-24 00:55 | 63.44514 | -15.61381 | 30947 ft | 248 kts | 115° |
| 2026-04-24 00:55 | 63.43977 | -15.57686 | 30960 ft | 258 kts | 115° |
| 2026-04-24 00:56 | 63.43406 | -15.53737 | 30974 ft | 268 kts | 115° |
| 2026-04-24 00:56 | 63.42835 | -15.49769 | 30969 ft | 277 kts | 115° |
| 2026-04-24 00:56 | 63.42235 | -15.45621 | 30973 ft | 284 kts | 115° |
| 2026-04-24 00:56 | 63.41607 | -15.41296 | 30969 ft | 291 kts | 115° |
| 2026-04-24 00:57 | 63.40976 | -15.36960 | 30969 ft | 297 kts | 115° |
| 2026-04-24 00:57 | 63.40341 | -15.32594 | 30984 ft | 302 kts | 115° |
| 2026-04-24 00:58 | 63.38344 | -15.18967 | 30973 ft | 313 kts | 115° |
| 2026-04-24 00:58 | 63.36972 | -15.09665 | 30975 ft | 319 kts | 115° |
| 2026-04-24 00:59 | 63.35569 | -15.00212 | 30975 ft | 324 kts | 116° |
| 2026-04-24 00:59 | 63.34140 | -14.90634 | 30972 ft | 328 kts | 116° |
| 2026-04-24 01:00 | 63.32684 | -14.80928 | 30969 ft | 332 kts | 116° |
| 2026-04-24 01:00 | 63.31207 | -14.71134 | 30974 ft | 336 kts | 116° |
| 2026-04-24 01:01 | 63.29714 | -14.61297 | 30972 ft | 339 kts | 117° |
| 2026-04-24 01:01 | 63.28191 | -14.51323 | 30968 ft | 342 kts | 117° |
| 2026-04-24 01:02 | 63.26659 | -14.41322 | 30961 ft | 340 kts | 117° |
| 2026-04-24 01:02 | 63.25117 | -14.31359 | 30964 ft | 341 kts | 117° |
| 2026-04-24 01:03 | 63.23574 | -14.21408 | 30965 ft | 341 kts | 118° |
| 2026-04-24 01:03 | 63.22536 | -14.14751 | 30965 ft | 341 kts | 118° |
| 2026-04-24 01:04 | 63.20307 | -14.00542 | 30967 ft | 340 kts | 118° |
| 2026-04-24 01:04 | 63.18757 | -13.90727 | 30964 ft | 340 kts | 118° |
| 2026-04-24 01:05 | 63.17189 | -13.80856 | 30967 ft | 339 kts | 118° |
| 2026-04-24 01:05 | 63.15621 | -13.71023 | 30973 ft | 339 kts | 118° |
| 2026-04-24 01:06 | 63.14046 | -13.61206 | 30973 ft | 338 kts | 118° |
| 2026-04-24 01:06 | 63.12468 | -13.51416 | 30982 ft | 338 kts | 118° |
| 2026-04-24 01:07 | 63.10882 | -13.41637 | 30972 ft | 338 kts | 118° |
| 2026-04-24 01:07 | 63.09290 | -13.31877 | 30975 ft | 337 kts | 118° |
| 2026-04-24 01:08 | 63.07701 | -13.22173 | 30981 ft | 337 kts | 118° |
| 2026-04-24 01:08 | 63.06379 | -13.14082 | 30972 ft | 337 kts | 118° |
| 2026-04-24 01:09 | 63.04600 | -13.02653 | 30978 ft | 339 kts | 115° |
| 2026-04-24 01:09 | 63.03415 | -12.94445 | 30977 ft | 337 kts | 116° |
| 2026-04-24 01:10 | 63.01677 | -12.82963 | 30978 ft | 338 kts | 116° |
| 2026-04-24 01:10 | 63.00455 | -12.74797 | 30976 ft | 337 kts | 116° |
| 2026-04-24 01:11 | 62.98970 | -12.65002 | 30976 ft | 337 kts | 116° |
| 2026-04-24 01:11 | 62.97493 | -12.55285 | 30979 ft | 337 kts | 116° |
| 2026-04-24 01:12 | 62.95999 | -12.45514 | 30978 ft | 336 kts | 116° |
| 2026-04-24 01:12 | 62.94503 | -12.35785 | 30983 ft | 336 kts | 116° |
| 2026-04-24 01:13 | 62.93001 | -12.26071 | 30980 ft | 336 kts | 116° |
| 2026-04-24 01:13 | 62.91487 | -12.16332 | 30985 ft | 336 kts | 116° |
| 2026-04-24 01:14 | 62.89973 | -12.06636 | 30987 ft | 336 kts | 116° |
| 2026-04-24 01:14 | 62.88452 | -11.96954 | 30988 ft | 336 kts | 116° |
| 2026-04-24 01:15 | 62.86935 | -11.87348 | 30988 ft | 336 kts | 117° |
| 2026-04-24 01:15 | 62.85401 | -11.77689 | 30992 ft | 336 kts | 117° |
| 2026-04-24 01:16 | 62.83860 | -11.68032 | 30984 ft | 336 kts | 117° |
| 2026-04-24 01:16 | 62.82312 | -11.58384 | 30989 ft | 335 kts | 117° |
| 2026-04-24 01:17 | 62.80762 | -11.48777 | 30991 ft | 335 kts | 117° |
| 2026-04-24 01:17 | 62.79202 | -11.39154 | 30992 ft | 335 kts | 117° |
| 2026-04-24 01:18 | 62.77642 | -11.29599 | 30992 ft | 335 kts | 117° |
| 2026-04-24 01:18 | 62.76071 | -11.20011 | 30995 ft | 335 kts | 117° |
| 2026-04-24 01:19 | 62.74491 | -11.10432 | 30994 ft | 335 kts | 117° |
| 2026-04-24 01:19 | 62.72904 | -11.00850 | 30996 ft | 335 kts | 117° |
| 2026-04-24 01:20 | 62.71312 | -10.91293 | 30995 ft | 336 kts | 117° |
| 2026-04-24 01:20 | 62.69711 | -10.81729 | 30999 ft | 335 kts | 117° |
| 2026-04-24 01:21 | 62.68106 | -10.72194 | 30995 ft | 336 kts | 117° |
| 2026-04-24 01:21 | 62.66491 | -10.62644 | 30997 ft | 336 kts | 117° |
| 2026-04-24 01:22 | 62.64884 | -10.53179 | 30996 ft | 336 kts | 117° |
| 2026-04-24 01:22 | 62.63259 | -10.43663 | 30999 ft | 336 kts | 117° |
| 2026-04-24 01:23 | 62.61625 | -10.34142 | 30998 ft | 336 kts | 117° |
| 2026-04-24 01:23 | 62.59985 | -10.24633 | 30998 ft | 336 kts | 117° |
| 2026-04-24 01:24 | 62.58338 | -10.15135 | 31001 ft | 336 kts | 117° |
| 2026-04-24 01:24 | 62.56683 | -10.05636 | 31002 ft | 337 kts | 117° |
| 2026-04-24 01:25 | 62.55023 | -9.96156 | 31002 ft | 337 kts | 117° |
| 2026-04-24 01:25 | 62.53354 | -9.86672 | 31001 ft | 337 kts | 117° |
| 2026-04-24 01:26 | 62.51676 | -9.77189 | 31004 ft | 337 kts | 117° |
| 2026-04-24 01:26 | 62.49996 | -9.67742 | 31009 ft | 332 kts | 117° |
| 2026-04-24 01:27 | 62.48342 | -9.58488 | 30995 ft | 331 kts | 117° |
| 2026-04-24 01:27 | 62.46664 | -9.49146 | 30989 ft | 335 kts | 117° |
| 2026-04-24 01:28 | 62.44974 | -9.39781 | 31001 ft | 338 kts | 117° |
| 2026-04-24 01:28 | 62.43259 | -9.30313 | 30998 ft | 338 kts | 117° |
| 2026-04-24 01:29 | 62.41536 | -9.20860 | 30993 ft | 338 kts | 117° |
| 2026-04-24 01:29 | 62.39811 | -9.11436 | 30997 ft | 338 kts | 117° |
| 2026-04-24 01:30 | 62.38077 | -9.02014 | 31003 ft | 338 kts | 117° |
| 2026-04-24 01:30 | 62.36338 | -8.92594 | 31002 ft | 338 kts | 117° |
| 2026-04-24 01:31 | 62.34588 | -8.83168 | 30998 ft | 339 kts | 117° |
| 2026-04-24 01:31 | 62.32841 | -8.73806 | 31001 ft | 339 kts | 117° |
| 2026-04-24 01:32 | 62.31080 | -8.64406 | 30534 ft | 338 kts | 116° |
| 2026-04-24 01:32 | 62.30206 | -8.59757 | 29869 ft | 334 kts | 116° |
| 2026-04-24 01:32 | 62.29339 | -8.55160 | 29086 ft | 329 kts | 116° |
| 2026-04-24 01:32 | 62.28479 | -8.50614 | 28304 ft | 326 kts | 116° |
| 2026-04-24 01:33 | 62.27627 | -8.46116 | 27609 ft | 324 kts | 116° |
| 2026-04-24 01:33 | 62.26777 | -8.41645 | 27026 ft | 324 kts | 116° |
| 2026-04-24 01:33 | 62.25924 | -8.37162 | 26535 ft | 324 kts | 116° |
| 2026-04-24 01:33 | 62.25079 | -8.32732 | 26136 ft | 325 kts | 116° |
| 2026-04-24 01:34 | 62.24216 | -8.28218 | 25777 ft | 327 kts | 116° |
| 2026-04-24 01:34 | 62.23348 | -8.23686 | 25447 ft | 329 kts | 116° |
| 2026-04-24 01:34 | 62.22479 | -8.19158 | 25112 ft | 330 kts | 116° |
| 2026-04-24 01:34 | 62.21601 | -8.14600 | 24766 ft | 331 kts | 116° |
| 2026-04-24 01:35 | 62.20721 | -8.10036 | 24380 ft | 331 kts | 116° |
| 2026-04-24 01:35 | 62.19839 | -8.05472 | 23963 ft | 331 kts | 116° |
| 2026-04-24 01:35 | 62.18955 | -8.00910 | 23461 ft | 331 kts | 116° |
| 2026-04-24 01:35 | 62.18071 | -7.96363 | 22979 ft | 331 kts | 116° |
| 2026-04-24 01:36 | 62.17185 | -7.91808 | 22539 ft | 331 kts | 116° |
| 2026-04-24 01:36 | 62.16297 | -7.87267 | 22120 ft | 331 kts | 116° |
| 2026-04-24 01:36 | 62.15406 | -7.82713 | 21733 ft | 332 kts | 116° |
| 2026-04-24 01:36 | 62.14511 | -7.78144 | 21355 ft | 333 kts | 116° |
| 2026-04-24 01:37 | 62.13612 | -7.73571 | 20986 ft | 334 kts | 116° |
| 2026-04-24 01:37 | 62.12712 | -7.69001 | 20604 ft | 335 kts | 116° |
| 2026-04-24 01:37 | 62.11806 | -7.64409 | 20217 ft | 335 kts | 116° |
| 2026-04-24 01:37 | 62.10897 | -7.59819 | 19832 ft | 335 kts | 116° |
| 2026-04-24 01:38 | 62.10091 | -7.55141 | 19398 ft | 337 kts | 111° |
| 2026-04-24 01:38 | 62.09345 | -7.50386 | 18985 ft | 338 kts | 111° |
| 2026-04-24 01:38 | 62.08593 | -7.45699 | 18582 ft | 338 kts | 111° |
| 2026-04-24 01:38 | 62.07818 | -7.40958 | 18131 ft | 338 kts | 111° |
| 2026-04-24 01:39 | 62.07046 | -7.36207 | 17676 ft | 338 kts | 111° |
| 2026-04-24 01:39 | 62.06278 | -7.31468 | 17240 ft | 339 kts | 111° |
| 2026-04-24 01:39 | 62.05504 | -7.26708 | 16785 ft | 339 kts | 111° |
| 2026-04-24 01:39 | 62.04546 | -7.22185 | 16314 ft | 336 kts | 123° |
| 2026-04-24 01:40 | 62.03299 | -7.18008 | 15882 ft | 334 kts | 128° |
| 2026-04-24 01:40 | 62.01933 | -7.14000 | 15443 ft | 334 kts | 130° |
| 2026-04-24 01:40 | 62.00486 | -7.10156 | 15016 ft | 331 kts | 135° |
| 2026-04-24 01:40 | 61.98911 | -7.06623 | 14600 ft | 328 kts | 138° |
| 2026-04-24 01:41 | 61.97336 | -7.03114 | 14183 ft | 326 kts | 136° |
| 2026-04-24 01:41 | 61.95842 | -6.99521 | 13725 ft | 324 kts | 134° |
| 2026-04-24 01:41 | 61.94357 | -6.95930 | 13274 ft | 320 kts | 135° |
| 2026-04-24 01:41 | 61.93076 | -6.92221 | 12809 ft | 303 kts | 118° |
| 2026-04-24 01:42 | 61.92629 | -6.88131 | 12354 ft | 271 kts | 90° |
| 2026-04-24 01:42 | 61.93064 | -6.84486 | 11914 ft | 245 kts | 59° |
| 2026-04-24 01:42 | 61.94183 | -6.82023 | 11482 ft | 223 kts | 25° |
| 2026-04-24 01:42 | 61.95586 | -6.81315 | 11078 ft | 198 kts | 350° |
| 2026-04-24 01:43 | 61.96799 | -6.82334 | 10471 ft | 189 kts | 315° |
| 2026-04-24 01:43 | 61.97467 | -6.84635 | 9852 ft | 181 kts | 282° |
| 2026-04-24 01:43 | 61.97336 | -6.87230 | 9224 ft | 180 kts | 245° |
| 2026-04-24 01:43 | 61.96431 | -6.89048 | 8623 ft | 186 kts | 208° |
| 2026-04-24 01:44 | 61.95138 | -6.89259 | 8009 ft | 193 kts | 170° |
| 2026-04-24 01:44 | 61.94065 | -6.87654 | 7735 ft | 189 kts | 129° |
| 2026-04-24 01:44 | 61.93705 | -6.85023 | 7290 ft | 190 kts | 88° |
| 2026-04-24 01:44 | 61.94190 | -6.82516 | 6878 ft | 187 kts | 46° |
| 2026-04-24 01:45 | 61.95283 | -6.81256 | 6443 ft | 177 kts | 4° |
| 2026-04-24 01:45 | 61.96413 | -6.81818 | 6088 ft | 163 kts | 319° |
| 2026-04-24 01:45 | 61.96995 | -6.83542 | 5964 ft | 131 kts | 291° |
| 2026-04-24 01:45 | 61.97073 | -6.85484 | 5296 ft | 136 kts | 265° |
| 2026-04-24 01:46 | 61.97070 | -6.87451 | 4960 ft | 129 kts | 278° |
| 2026-04-24 01:46 | 61.97206 | -6.89357 | 4810 ft | 132 kts | 276° |
| 2026-04-24 01:46 | 61.97381 | -6.91298 | 4609 ft | 135 kts | 289° |
| 2026-04-24 01:46 | 61.97785 | -6.93115 | 4396 ft | 137 kts | 292° |
| 2026-04-24 01:47 | 61.98205 | -6.94933 | 4175 ft | 136 kts | 294° |
| 2026-04-24 01:47 | 61.98633 | -6.96729 | 3971 ft | 136 kts | 294° |
| 2026-04-24 01:47 | 61.99079 | -6.98493 | 3748 ft | 135 kts | 296° |
| 2026-04-24 01:47 | 61.99516 | -7.00256 | 3537 ft | 137 kts | 295° |
| 2026-04-24 01:48 | 61.99960 | -7.02035 | 3303 ft | 136 kts | 296° |
| 2026-04-24 01:48 | 62.00401 | -7.03793 | 3090 ft | 126 kts | 295° |
| 2026-04-24 01:48 | 62.00777 | -7.05291 | 2892 ft | 106 kts | 295° |
| 2026-04-24 01:48 | 62.01098 | -7.06581 | 2722 ft | 94 kts | 295° |
| 2026-04-24 01:49 | 62.01393 | -7.07766 | 2571 ft | 87 kts | 295° |
| 2026-04-24 01:49 | 62.01675 | -7.08894 | 2443 ft | 85 kts | 294° |
| 2026-04-24 01:49 | 62.01950 | -7.09998 | 2309 ft | 84 kts | 295° |
| 2026-04-24 01:49 | 62.02225 | -7.11099 | 2169 ft | 84 kts | 294° |
| 2026-04-24 01:50 | 62.02499 | -7.12196 | 2035 ft | 84 kts | 295° |
| 2026-04-24 01:50 | 62.02770 | -7.13299 | 1892 ft | 84 kts | 294° |
| 2026-04-24 01:50 | 62.03049 | -7.14397 | 1761 ft | 84 kts | 294° |
| 2026-04-24 01:50 | 62.03319 | -7.15497 | 1611 ft | 83 kts | 295° |
| 2026-04-24 01:51 | 62.03589 | -7.16572 | 1483 ft | 82 kts | 294° |
| 2026-04-24 01:51 | 62.03863 | -7.17662 | 1344 ft | 84 kts | 294° |
| 2026-04-24 01:51 | 62.04130 | -7.18764 | 1200 ft | 84 kts | 294° |
| 2026-04-24 01:51 | 62.04406 | -7.19866 | 1044 ft | 84 kts | 294° |
| 2026-04-24 01:52 | 62.04667 | -7.20962 | 897 ft | 83 kts | 296° |
| 2026-04-24 01:52 | 62.04950 | -7.22035 | 764 ft | 83 kts | 296° |
| 2026-04-24 01:52 | 62.05217 | -7.23119 | 658 ft | 83 kts | 294° |
| 2026-04-24 01:52 | 62.05472 | -7.24224 | 521 ft | 83 kts | 298° |
| 2026-04-24 01:53 | 62.05763 | -7.25326 | 327 ft | 87 kts | 295° |
| 2026-04-24 01:53 | 62.06043 | -7.26444 | 255 ft | 76 kts | 298° |
| 2026-04-24 01:53 | 62.06215 | -7.27143 | 272 ft | 35 kts | 298° |
| 2026-04-24 01:53 | 62.06309 | -7.27524 | 284 ft | 23 kts | 298° |
| 2026-04-24 01:54 | 62.06374 | -7.27779 | 291 ft | 16 kts | 298° |
| 2026-04-24 01:54 | 62.06432 | -7.28017 | 284 ft | 21 kts | 298° |
| 2026-04-24 01:54 | 62.06504 | -7.28142 | 281 ft | 12 kts | 19° |
| 2026-04-24 01:54 | 62.06565 | -7.28095 | 282 ft | 6 kts | 14° |
| 2026-04-24 01:55 | 62.06574 | -7.28091 | 282 ft | 0 kts | 5° |
| 2026-04-24 01:56 | 62.06580 | -7.28090 | 282 ft | 4 kts | 5° |
| 2026-04-24 01:56 | 62.06626 | -7.28090 | 283 ft | 0 kts | 358° |
| 2026-04-24 01:57 | 62.06651 | -7.28101 | 283 ft | 8 kts | 344° |
| 2026-04-24 01:57 | 62.06722 | -7.28149 | 283 ft | 10 kts | 19° |
| 2026-04-24 01:57 | 62.06732 | -7.28116 | 283 ft | 0 kts | 69° |
| 2026-04-24 01:57 | 62.06733 | -7.28111 | 283 ft | 0 kts | 73° |